createdAt,value
2019-02-24T00:02:23.539Z,45.00
2019-02-24T00:05:25.280Z,44.80
2019-02-24T00:08:27.039Z,45.00
2019-02-24T00:11:29.141Z,44.80
2019-02-24T00:14:31.142Z,44.90
2019-02-24T00:17:34.738Z,44.90
2019-02-24T00:20:36.487Z,44.90
2019-02-24T00:23:39.638Z,44.80
2019-02-24T00:26:41.290Z,44.80
2019-02-24T00:29:42.765Z,44.90
2019-02-24T00:32:44.276Z,44.90
2019-02-24T00:35:45.799Z,45.10
2019-02-24T00:38:50.014Z,44.80
2019-02-24T00:41:51.584Z,45.00
2019-02-24T00:44:53.349Z,44.70
2019-02-24T00:47:54.816Z,44.80
2019-02-24T00:50:56.276Z,44.70
2019-02-24T00:53:57.865Z,44.80
2019-02-24T00:56:59.335Z,44.80
2019-02-24T01:00:00.792Z,44.80
2019-02-24T01:03:02.437Z,44.80
2019-02-24T01:06:04.163Z,45.10
2019-02-24T01:09:06.856Z,44.90
2019-02-24T01:12:11.060Z,44.80
2019-02-24T01:15:12.228Z,44.90
2019-02-24T01:18:16.362Z,44.90
2019-02-24T01:21:17.995Z,44.80
2019-02-24T01:24:19.639Z,44.90
2019-02-24T01:27:21.152Z,44.80
2019-02-24T01:30:22.578Z,44.80
2019-02-24T01:33:24.050Z,45.00
2019-02-24T01:36:25.436Z,45.00
2019-02-24T01:39:27.001Z,45.00
2019-02-24T01:42:28.434Z,45.00
2019-02-24T01:45:30.245Z,45.00
2019-02-24T01:48:31.722Z,45.20
2019-02-24T01:51:33.375Z,45.00
2019-02-24T01:54:35.043Z,45.20
2019-02-24T01:57:36.777Z,44.90
2019-02-24T02:00:39.348Z,45.00
2019-02-24T02:03:40.905Z,44.90
2019-02-24T02:06:42.375Z,45.00
2019-02-24T02:09:43.835Z,44.90
2019-02-24T02:12:46.866Z,45.00
2019-02-24T02:15:49.356Z,44.80
2019-02-24T02:18:50.831Z,45.00
2019-02-24T02:21:52.468Z,44.70
2019-02-24T02:24:53.939Z,44.80
2019-02-24T02:27:55.885Z,44.90
2019-02-24T02:30:57.440Z,44.90
2019-02-24T02:33:59.088Z,44.90
2019-02-24T02:37:01.976Z,44.70
2019-02-24T02:40:03.715Z,44.90
2019-02-24T02:43:06.189Z,44.80
2019-02-24T02:46:07.665Z,44.80
2019-02-24T02:49:09.158Z,44.80
2019-02-24T02:52:13.153Z,44.80
2019-02-24T02:55:14.804Z,44.80
2019-02-24T02:58:18.019Z,45.40
2019-02-24T03:01:19.555Z,44.70
2019-02-24T03:04:20.997Z,44.90
2019-02-24T03:07:27.280Z,44.80
2019-02-24T03:10:28.643Z,44.70
2019-02-24T03:13:30.035Z,44.80
2019-02-24T03:16:31.414Z,44.80
2019-02-24T03:19:32.822Z,44.80
2019-02-24T03:22:34.206Z,44.70
2019-02-24T03:25:35.660Z,44.90
2019-02-24T03:28:38.018Z,44.80
2019-02-24T03:31:39.630Z,44.70
2019-02-24T03:34:41.334Z,45.00
2019-02-24T03:37:42.784Z,44.90
2019-02-24T03:40:44.244Z,44.90
2019-02-24T03:43:45.596Z,44.90
2019-02-24T03:46:46.959Z,44.90
2019-02-24T03:49:48.445Z,44.90
2019-02-24T03:52:49.922Z,44.80
2019-02-24T03:55:51.269Z,44.80
2019-02-24T03:58:53.601Z,45.00
2019-02-24T04:01:55.040Z,44.90
2019-02-24T04:04:56.476Z,44.80
2019-02-24T04:07:57.902Z,44.90
2019-02-24T04:10:59.288Z,44.90
2019-02-24T04:14:00.749Z,44.90
2019-02-24T04:17:02.159Z,45.00
2019-02-24T04:20:03.532Z,44.80
2019-02-24T04:23:04.933Z,44.90
2019-02-24T04:26:06.320Z,44.90
2019-02-24T04:29:07.715Z,44.90
2019-02-24T04:32:09.079Z,45.00
2019-02-24T04:35:10.588Z,44.80
2019-02-24T04:38:11.924Z,44.90
2019-02-24T04:41:13.293Z,45.50
2019-02-24T04:44:15.690Z,45.00
2019-02-24T04:47:17.136Z,44.90
2019-02-24T04:50:18.598Z,44.90
2019-02-24T04:53:20.051Z,45.00
2019-02-24T04:56:21.601Z,45.00
2019-02-24T04:59:23.048Z,45.00
2019-02-24T05:02:24.443Z,45.10
2019-02-24T05:05:25.818Z,45.00
2019-02-24T05:08:27.301Z,45.00
2019-02-24T05:11:28.702Z,45.00
2019-02-24T05:14:30.174Z,45.10
2019-02-24T05:17:31.574Z,45.90
2019-02-24T05:20:33.453Z,45.90
2019-02-24T05:23:34.985Z,45.70
2019-02-24T05:26:36.407Z,45.80
2019-02-24T05:29:45.730Z,45.70
2019-02-24T05:32:42.066Z,45.60
2019-02-24T05:35:43.509Z,45.60
2019-02-24T05:38:45.048Z,45.60
2019-02-24T05:41:46.930Z,45.70
2019-02-24T05:44:49.627Z,45.60
2019-02-24T05:47:51.168Z,45.70
2019-02-24T05:50:52.568Z,45.70
2019-02-24T05:53:53.969Z,45.70
2019-02-24T05:56:55.367Z,45.70
2019-02-24T05:59:56.839Z,45.60
2019-02-24T06:02:58.238Z,45.70
2019-02-24T06:05:59.695Z,45.70
2019-02-24T06:09:01.054Z,45.60
2019-02-24T06:12:04.255Z,45.70
2019-02-24T06:15:06.059Z,45.80
2019-02-24T06:18:07.432Z,45.70
2019-02-24T06:21:08.764Z,45.80
2019-02-24T06:24:10.349Z,45.80
2019-02-24T06:27:11.764Z,45.70
2019-02-24T06:30:13.134Z,45.70
2019-02-24T06:33:14.497Z,45.80
2019-02-24T06:36:15.868Z,45.90
2019-02-24T06:39:17.254Z,45.60
2019-02-24T06:42:18.707Z,45.70
2019-02-24T06:45:20.102Z,45.90
2019-02-24T06:48:21.474Z,45.90
2019-02-24T06:51:22.953Z,45.70
2019-02-24T06:54:24.319Z,45.80
2019-02-24T06:57:25.658Z,45.80
2019-02-24T07:00:27.040Z,45.80
2019-02-24T07:03:28.635Z,45.80
2019-02-24T07:06:30.008Z,45.80
2019-02-24T07:09:31.358Z,46.10
2019-02-24T07:12:32.717Z,46.00
2019-02-24T07:15:34.208Z,46.00
2019-02-24T07:18:35.670Z,45.90
2019-02-24T07:21:37.094Z,46.10
2019-02-24T07:24:38.481Z,46.20
2019-02-24T07:27:39.853Z,46.30
2019-02-24T07:30:41.309Z,46.50
2019-02-24T07:33:42.726Z,46.40
2019-02-24T07:36:44.109Z,46.50
2019-02-24T07:39:45.508Z,46.40
2019-02-24T07:42:46.869Z,46.60
2019-02-24T07:45:48.280Z,46.70
2019-02-24T07:48:51.360Z,46.70
2019-02-24T07:51:52.789Z,47.00
2019-02-24T07:54:54.447Z,46.90
2019-02-24T07:57:56.192Z,47.00
2019-02-24T08:00:58.162Z,47.00
2019-02-24T08:03:59.891Z,47.10
2019-02-24T08:07:01.767Z,47.10
2019-02-24T08:10:03.233Z,47.10
2019-02-24T08:13:04.732Z,47.10
2019-02-24T08:16:06.147Z,47.10
2019-02-24T08:19:07.742Z,47.00
2019-02-24T08:22:09.147Z,47.10
2019-02-24T08:25:10.593Z,47.00
2019-02-24T08:28:12.148Z,47.10
2019-02-24T08:31:14.061Z,46.40
2019-02-24T08:34:15.442Z,46.60
2019-02-24T08:37:16.986Z,46.70
2019-02-24T08:40:18.400Z,46.70
2019-02-24T08:43:19.868Z,46.80
2019-02-24T08:46:21.426Z,46.80
2019-02-24T08:49:23.943Z,47.00
2019-02-24T08:52:25.719Z,46.80
2019-02-24T08:55:27.265Z,46.90
2019-02-24T08:58:28.819Z,47.10
2019-02-24T09:01:30.284Z,47.20
2019-02-24T09:04:31.890Z,47.30
2019-02-24T09:07:33.351Z,47.50
2019-02-24T09:10:34.791Z,47.60
2019-02-24T09:13:36.699Z,47.70
2019-02-24T09:16:38.234Z,47.90
2019-02-24T09:19:39.835Z,48.10
2019-02-24T09:22:41.295Z,48.20
2019-02-24T09:25:42.723Z,48.20
2019-02-24T09:28:44.258Z,48.30
2019-02-24T09:31:45.965Z,48.40
2019-02-24T09:34:47.492Z,48.40
2019-02-24T09:37:49.029Z,49.00
2019-02-24T09:40:50.531Z,48.40
2019-02-24T09:43:51.952Z,48.40
2019-02-24T09:46:53.362Z,48.50
2019-02-24T09:49:54.947Z,48.50
2019-02-24T09:52:56.443Z,48.40
2019-02-24T09:55:58.164Z,48.40
2019-02-24T09:58:59.630Z,48.20
2019-02-24T10:02:01.205Z,48.20
2019-02-24T10:05:02.912Z,48.20
2019-02-24T10:08:05.102Z,48.10
2019-02-24T10:11:06.688Z,47.90
2019-02-24T10:14:08.206Z,47.90
2019-02-24T10:17:09.729Z,47.90
2019-02-24T10:20:11.514Z,47.70
2019-02-24T10:23:13.003Z,47.60
2019-02-24T10:26:14.545Z,47.60
2019-02-24T10:29:16.076Z,47.70
2019-02-24T10:32:17.512Z,47.60
2019-02-24T10:35:19.035Z,47.50
2019-02-24T10:38:20.678Z,47.50
2019-02-24T10:41:22.268Z,47.50
2019-02-24T10:44:23.805Z,47.30
2019-02-24T10:47:25.250Z,47.40
2019-02-24T10:50:26.784Z,47.50
2019-02-24T10:53:28.347Z,48.20
2019-02-24T10:56:30.792Z,48.30
2019-02-24T10:59:32.875Z,48.60
2019-02-24T11:02:34.490Z,48.70
2019-02-24T11:05:36.023Z,48.70
2019-02-24T11:08:37.897Z,48.70
2019-02-24T11:11:39.501Z,48.70
2019-02-24T11:14:41.022Z,48.60
2019-02-24T11:17:42.433Z,48.60
2019-02-24T11:20:43.900Z,48.50
2019-02-24T11:23:45.369Z,48.40
2019-02-24T11:26:46.834Z,48.30
2019-02-24T11:29:48.754Z,48.20
2019-02-24T11:32:50.255Z,48.10
2019-02-24T11:35:51.735Z,47.90
2019-02-24T11:38:53.285Z,47.80
2019-02-24T11:41:54.787Z,47.50
2019-02-24T11:44:56.314Z,47.30
2019-02-24T11:47:58.258Z,46.90
2019-02-24T11:50:59.912Z,46.70
2019-02-24T11:54:01.642Z,46.70
2019-02-24T11:57:03.331Z,47.00
2019-02-24T12:00:07.072Z,46.50
2019-02-24T12:03:12.235Z,46.40
2019-02-24T12:06:14.227Z,46.00
2019-02-24T12:09:15.957Z,45.70
2019-02-24T12:12:17.708Z,45.40
2019-02-24T12:15:19.468Z,44.40
2019-02-24T12:18:21.244Z,42.90
2019-02-24T12:21:24.324Z,42.50
2019-02-24T12:24:25.906Z,42.10
2019-02-24T12:27:27.754Z,41.70
2019-02-24T12:30:29.589Z,40.60
2019-02-24T12:33:31.242Z,41.10
2019-02-24T12:36:32.949Z,40.10
2019-02-24T12:39:34.788Z,40.30
2019-02-24T12:42:36.478Z,39.60
2019-02-24T12:45:38.110Z,38.00
2019-02-24T12:48:39.668Z,38.10
2019-02-24T12:51:41.356Z,38.00
2019-02-24T12:54:42.810Z,37.80
2019-02-24T12:57:44.314Z,37.70
2019-02-24T13:00:45.883Z,36.50
2019-02-24T13:03:47.346Z,37.20
2019-02-24T13:06:49.377Z,37.80
2019-02-24T13:09:50.978Z,36.90
2019-02-24T13:12:52.516Z,36.50
2019-02-24T13:15:54.150Z,35.80
2019-02-24T13:18:56.021Z,36.90
2019-02-24T13:21:57.682Z,35.60
2019-02-24T13:24:59.861Z,36.40
2019-02-24T13:28:01.448Z,35.50
2019-02-24T13:31:03.085Z,36.20
2019-02-24T13:34:05.315Z,34.70
2019-02-24T13:37:06.876Z,35.00
2019-02-24T13:40:09.722Z,35.30
2019-02-24T13:43:11.293Z,34.00
2019-02-24T13:46:12.953Z,34.50
2019-02-24T13:49:14.471Z,33.00
2019-02-24T13:52:16.043Z,34.00
2019-02-24T13:55:17.953Z,34.60
2019-02-24T13:58:20.930Z,33.40
2019-02-24T14:01:22.687Z,34.30
2019-02-24T14:04:26.191Z,33.80
2019-02-24T14:07:27.881Z,33.70
2019-02-24T14:10:29.601Z,34.40
2019-02-24T14:13:31.216Z,33.70
2019-02-24T14:16:32.906Z,33.10
2019-02-24T14:19:34.570Z,32.70
2019-02-24T14:22:37.639Z,32.40
2019-02-24T14:25:41.251Z,32.50
2019-02-24T14:28:42.585Z,32.60
2019-02-24T14:31:44.277Z,32.70
2019-02-24T14:34:45.897Z,32.00
2019-02-24T14:37:47.466Z,32.10
2019-02-24T14:40:49.019Z,32.80
2019-02-24T14:43:50.637Z,32.70
2019-02-24T14:46:52.329Z,32.70
2019-02-24T14:49:53.832Z,32.80
2019-02-24T14:52:55.311Z,32.60
2019-02-24T14:55:56.877Z,32.50
2019-02-24T14:58:58.408Z,32.20
2019-02-24T15:02:00.446Z,31.50
2019-02-24T15:05:02.189Z,31.20
2019-02-24T15:08:03.790Z,31.90
2019-02-24T15:11:05.860Z,30.60
2019-02-24T15:14:07.515Z,30.50
2019-02-24T15:17:09.700Z,30.50
2019-02-24T15:20:16.094Z,30.60
2019-02-24T15:23:17.944Z,30.20
2019-02-24T15:26:20.957Z,30.00
2019-02-24T15:29:22.865Z,29.30
2019-02-24T15:32:24.433Z,29.50
2019-02-24T15:35:27.754Z,29.40
2019-02-24T15:38:29.418Z,29.20
2019-02-24T15:41:31.403Z,28.90
2019-02-24T15:44:33.013Z,28.70
2019-02-24T15:47:34.654Z,28.50
2019-02-24T15:50:36.545Z,28.30
2019-02-24T15:53:38.127Z,27.30
2019-02-24T15:56:39.626Z,27.00
2019-02-24T15:59:41.247Z,26.10
2019-02-24T16:02:43.221Z,26.40
2019-02-24T16:05:44.827Z,26.30
2019-02-24T16:08:46.328Z,25.80
2019-02-24T16:11:47.873Z,25.20
2019-02-24T16:14:49.394Z,25.20
2019-02-24T16:17:51.440Z,26.40
2019-02-24T16:20:53.075Z,26.10
2019-02-24T16:23:55.065Z,26.60
2019-02-24T16:26:56.764Z,26.40
2019-02-24T16:29:58.313Z,26.80
2019-02-24T16:33:00.157Z,26.20
2019-02-24T16:36:02.937Z,25.60
2019-02-24T16:39:05.038Z,25.70
2019-02-24T16:42:07.550Z,25.80
2019-02-24T16:45:10.745Z,25.90
2019-02-24T16:48:12.370Z,25.90
2019-02-24T16:51:13.926Z,26.20
2019-02-24T16:54:15.415Z,26.30
2019-02-24T16:57:17.362Z,26.60
2019-02-24T17:00:21.099Z,27.20
2019-02-24T17:03:23.085Z,27.50
2019-02-24T17:06:24.693Z,27.70
2019-02-24T17:09:26.197Z,28.00
2019-02-24T17:12:27.903Z,28.20
2019-02-24T17:15:32.907Z,29.20
2019-02-24T17:18:34.521Z,30.20
2019-02-24T17:21:36.724Z,30.70
2019-02-24T17:24:38.820Z,31.10
2019-02-24T17:27:40.372Z,31.20
2019-02-24T17:30:41.880Z,31.70
2019-02-24T17:33:43.524Z,32.10
2019-02-24T17:36:45.475Z,32.50
2019-02-24T17:39:47.127Z,32.90
2019-02-24T17:42:48.783Z,33.20
2019-02-24T17:45:53.859Z,33.50
2019-02-24T17:48:56.404Z,33.80
2019-02-24T17:51:58.255Z,34.10
2019-02-24T17:54:59.916Z,34.30
2019-02-24T17:58:01.470Z,34.40
2019-02-24T18:01:04.659Z,34.60
2019-02-24T18:04:06.262Z,34.80
2019-02-24T18:07:08.158Z,35.00
2019-02-24T18:10:09.626Z,35.40
2019-02-24T18:13:11.409Z,35.60
2019-02-24T18:16:13.472Z,36.00
2019-02-24T18:19:15.050Z,36.30
2019-02-24T18:22:16.690Z,36.50
2019-02-24T18:25:18.584Z,36.80
2019-02-24T18:28:20.201Z,37.10
2019-02-24T18:31:21.932Z,37.30
2019-02-24T18:34:23.645Z,37.60
2019-02-24T18:37:26.110Z,37.70
2019-02-24T18:40:27.654Z,37.80
2019-02-24T18:43:29.205Z,38.00
2019-02-24T18:46:30.642Z,38.30
2019-02-24T18:49:32.415Z,38.30
2019-02-24T18:52:34.415Z,38.40
2019-02-24T18:55:36.037Z,38.60
2019-02-24T18:58:37.881Z,38.70
2019-02-24T19:01:39.522Z,38.80
2019-02-24T19:04:41.128Z,38.90
2019-02-24T19:07:44.027Z,39.00
2019-02-24T19:10:45.799Z,39.30
2019-02-24T19:13:48.477Z,39.60
2019-02-24T19:16:50.290Z,39.70
2019-02-24T19:19:51.846Z,39.90
2019-02-24T19:22:53.401Z,40.20
2019-02-24T19:25:55.027Z,40.30
2019-02-24T19:28:56.991Z,40.30
2019-02-24T19:31:58.581Z,40.50
2019-02-24T19:35:00.287Z,40.60
2019-02-24T19:38:02.317Z,40.70
2019-02-24T19:41:04.382Z,40.80
2019-02-24T19:44:06.041Z,40.80
2019-02-24T19:47:07.622Z,40.90
2019-02-24T19:50:13.131Z,41.00
2019-02-24T19:53:16.073Z,41.00
2019-02-24T19:56:17.543Z,41.30
2019-02-24T19:59:19.134Z,41.20
2019-02-24T20:02:20.697Z,41.30
2019-02-24T20:05:23.568Z,41.40
2019-02-24T20:08:25.200Z,41.50
2019-02-24T20:11:26.804Z,41.50
2019-02-24T20:14:28.854Z,41.60
2019-02-24T20:17:30.441Z,41.80
2019-02-24T20:20:32.055Z,42.20
2019-02-24T20:23:33.625Z,41.90
2019-02-24T20:26:35.386Z,41.90
2019-02-24T20:29:37.079Z,42.00
2019-02-24T20:32:38.816Z,42.10
2019-02-24T20:35:40.651Z,42.10
2019-02-24T20:38:42.195Z,42.10
2019-02-24T20:41:43.785Z,42.20
2019-02-24T20:44:45.314Z,42.10
2019-02-24T20:47:47.102Z,42.30
2019-02-24T20:50:48.685Z,42.20
2019-02-24T20:53:50.234Z,42.30
2019-02-24T20:56:51.825Z,42.30
2019-02-24T20:59:53.631Z,42.30
2019-02-24T21:02:55.662Z,42.40
2019-02-24T21:05:57.562Z,42.50
2019-02-24T21:08:59.126Z,42.40
2019-02-24T21:12:00.687Z,42.50
2019-02-24T21:15:02.167Z,42.50
2019-02-24T21:18:03.689Z,42.50
2019-02-24T21:21:05.569Z,42.60
2019-02-24T21:24:07.085Z,42.60
2019-02-24T21:27:08.618Z,42.70
2019-02-24T21:30:12.275Z,42.70
2019-02-24T21:33:14.217Z,42.70
2019-02-24T21:36:15.822Z,42.80
2019-02-24T21:39:17.298Z,42.80
2019-02-24T21:42:18.810Z,42.80
2019-02-24T21:45:20.847Z,42.90
2019-02-24T21:48:22.297Z,42.90
2019-02-24T21:51:24.079Z,42.90
2019-02-24T21:54:25.962Z,42.90
2019-02-24T21:57:27.468Z,43.10
2019-02-24T22:00:28.960Z,43.00
2019-02-24T22:03:30.409Z,43.10
2019-02-24T22:06:31.921Z,43.10
2019-02-24T22:09:33.412Z,43.10
2019-02-24T22:12:34.939Z,43.10
2019-02-24T22:15:36.786Z,43.00
2019-02-24T22:18:38.228Z,43.20
2019-02-24T22:21:39.771Z,43.10
2019-02-24T22:24:41.264Z,43.20
2019-02-24T22:27:42.673Z,43.30
2019-02-24T22:30:44.159Z,43.30
2019-02-24T22:33:45.621Z,43.30
2019-02-24T22:36:47.084Z,43.30
2019-02-24T22:39:48.556Z,43.30
2019-02-24T22:42:50.295Z,43.30
2019-02-24T22:45:51.843Z,43.30
2019-02-24T22:48:53.333Z,43.30
2019-02-24T22:51:54.769Z,43.40
2019-02-24T22:54:56.249Z,43.40
2019-02-24T22:57:57.746Z,43.40
2019-02-24T23:01:14.366Z,43.40
2019-02-24T23:04:17.637Z,43.40
2019-02-24T23:07:19.189Z,43.40
2019-02-24T23:10:20.728Z,43.40
2019-02-24T23:13:22.641Z,43.30
2019-02-24T23:16:24.309Z,43.30
2019-02-24T23:19:25.961Z,43.40
2019-02-24T23:22:27.480Z,43.40
2019-02-24T23:25:28.944Z,43.40
2019-02-24T23:28:30.455Z,43.40
2019-02-24T23:31:31.924Z,43.50
2019-02-24T23:34:33.363Z,43.40
2019-02-24T23:37:34.778Z,43.40
2019-02-24T23:40:36.576Z,43.40
2019-02-24T23:43:38.018Z,43.60
2019-02-24T23:46:39.405Z,43.50
2019-02-24T23:49:40.852Z,43.50
2019-02-24T23:52:42.268Z,43.50
2019-02-24T23:55:43.731Z,43.50
2019-02-24T23:58:45.123Z,43.50
